Oriana — ZCDU9 — position and weather

sailwx.info

Track history (hours):
 
Tides and Currents Weather Stations Pressure Air Temp Water Temp Dewpoint Dewpoint Depression Visibility Wind Speed Wind Dir Waves Ship Positions

Oriana (Bermuda)

Last reported at 2015-Jan-27 18:15 UTC. Time now 2015-Jan-28 16:09 UTC.
Position N 34°58' W 014°58'.

Length 261 m; beam 32.2 m; draft 8.2 m.

Type: Ship. MMSI: 310529000.

Date/timePositionNaut miles runAvg speedWind from/ knotsBaromVisibWave heightAir tempDewpointWater temp
2015-Jan-27 18:15N 34°58' W 014°58'9413.0
2015-Jan-27 11:04N 36°23' W 014°09'13812.9
2015-Jan-27 00:22N 38°28' W 012°54'6313.0
2015-Jan-26 19:32N 39°24' W 012°19'1812.8
2015-Jan-26 18:08N 39°40' W 012°09'812.9
2015-Jan-26 17:33N 39°47' W 012°05'1613.1
2015-Jan-26 16:22N 40°01' W 011°56'434 9.4
2015-Jan-24 18:00N 46°12' W 006°48'13415.9 070 / 91035.1 0.510.5 2.313.0
2015-Jan-24 09:33N 48°17' W 005°36'1919.3
2015-Jan-24 08:33N 48°34' W 005°22'19416.2
2015-Jan-23 20:33N 50°28' W 001°20'1515.3
2015-Jan-23 19:33N 50°35' W 000°59'10 9.5
2015-Jan-23 18:34N 50°44' W 001°05'1110.9
2015-Jan-23 17:33N 50°50' W 001°19'5 4.2
2015-Jan-23 16:28N 50°53' W 001°24'0 0.0
2015-Jan-23 15:13N 50°53' W 001°24'0 0.0
2015-Jan-23 14:33N 50°53' W 001°24'0 0.0
2015-Jan-23 12:10N 50°53' W 001°24'0 0.0
2015-Jan-23 11:16N 50°53' W 001°24'0 0.0
2015-Jan-23 07:22N 50°53' W 001°24'1 1.3
2015-Jan-23 06:33N 50°53' W 001°23'9 8.6
2015-Jan-23 05:33N 50°46' W 001°14'1313.0
2015-Jan-23 04:33N 50°38' W 000°59'1412.9
2015-Jan-23 03:27N 50°29' W 001°17'18113.0
2015-Jan-22 13:33N 48°44' W 005°03'3115.6
2015-Jan-22 11:33N 48°20' W 005°33'60814.7
2015-Jan-20 18:09N 38°37' W 009°28'915.5
2015-Jan-20 17:33N 38°41' W 009°18'8 6.7
2015-Jan-20 16:21N 38°43' W 009°08'0 0.0
2015-Jan-20 15:04N 38°43' W 009°08'0 0.0
2015-Jan-20 14:33N 38°43' W 009°08'0 0.0
2015-Jan-20 13:31N 38°43' W 009°08'0 0.0
2015-Jan-20 12:30N 38°43' W 009°08'0 0.0
2015-Jan-20 11:33N 38°43' W 009°08'0 0.0
2015-Jan-20 10:31N 38°43' W 009°08'0 0.0
2015-Jan-20 09:32N 38°43' W 009°08'0 0.2
2015-Jan-20 08:33N 38°42' W 009°08'9 8.5
2015-Jan-20 07:28N 38°40' W 009°19'1414.7
2015-Jan-20 06:33N 38°27' W 009°25'1615.7
2015-Jan-20 05:33N 38°11' W 009°25'1616.0
2015-Jan-20 04:32N 37°55' W 009°24'1716.4
2015-Jan-20 03:29N 37°38' W 009°23'6913.8
2015-Jan-19 22:30N 36°41' W 008°34'2217.9
2015-Jan-19 21:15N 36°40' W 008°07'  
Track history (hours):
 
Tides and Currents Weather Stations Pressure Air Temp Water Temp Dewpoint Dewpoint Depression Visibility Wind Speed Wind Dir Waves Ship Positions

Oriana (Bermuda)

Last reported at 2015-Jan-27 18:15 UTC. Time now 2015-Jan-28 16:09 UTC.
Position N 34°58' W 014°58'.

Length 261 m; beam 32.2 m; draft 8.2 m.

Type: Ship. MMSI: 310529000.

Date/timePositionNaut miles runAvg speedWind from/ knotsBaromVisibWave heightAir tempDewpointWater temp
2015-Jan-27 18:15N 34°58' W 014°58'9413.0
2015-Jan-27 11:04N 36°23' W 014°09'13812.9
2015-Jan-27 00:22N 38°28' W 012°54'6313.0
2015-Jan-26 19:32N 39°24' W 012°19'1812.8
2015-Jan-26 18:08N 39°40' W 012°09'812.9
2015-Jan-26 17:33N 39°47' W 012°05'1613.1
2015-Jan-26 16:22N 40°01' W 011°56'434 9.4
2015-Jan-24 18:00N 46°12' W 006°48'13415.9 070 / 91035.1 0.510.5 2.313.0
2015-Jan-24 09:33N 48°17' W 005°36'1919.3
2015-Jan-24 08:33N 48°34' W 005°22'19416.2
2015-Jan-23 20:33N 50°28' W 001°20'1515.3
2015-Jan-23 19:33N 50°35' W 000°59'10 9.5
2015-Jan-23 18:34N 50°44' W 001°05'1110.9
2015-Jan-23 17:33N 50°50' W 001°19'5 4.2
2015-Jan-23 16:28N 50°53' W 001°24'0 0.0
2015-Jan-23 15:13N 50°53' W 001°24'0 0.0
2015-Jan-23 14:33N 50°53' W 001°24'0 0.0
2015-Jan-23 12:10N 50°53' W 001°24'0 0.0
2015-Jan-23 11:16N 50°53' W 001°24'0 0.0
2015-Jan-23 07:22N 50°53' W 001°24'1 1.3
2015-Jan-23 06:33N 50°53' W 001°23'9 8.6
2015-Jan-23 05:33N 50°46' W 001°14'1313.0
2015-Jan-23 04:33N 50°38' W 000°59'1412.9
2015-Jan-23 03:27N 50°29' W 001°17'18113.0
2015-Jan-22 13:33N 48°44' W 005°03'3115.6
2015-Jan-22 11:33N 48°20' W 005°33'60814.7
2015-Jan-20 18:09N 38°37' W 009°28'915.5
2015-Jan-20 17:33N 38°41' W 009°18'8 6.7
2015-Jan-20 16:21N 38°43' W 009°08'0 0.0
2015-Jan-20 15:04N 38°43' W 009°08'0 0.0
2015-Jan-20 14:33N 38°43' W 009°08'0 0.0
2015-Jan-20 13:31N 38°43' W 009°08'0 0.0
2015-Jan-20 12:30N 38°43' W 009°08'0 0.0
2015-Jan-20 11:33N 38°43' W 009°08'0 0.0
2015-Jan-20 10:31N 38°43' W 009°08'0 0.0
2015-Jan-20 09:32N 38°43' W 009°08'0 0.2
2015-Jan-20 08:33N 38°42' W 009°08'9 8.5
2015-Jan-20 07:28N 38°40' W 009°19'1414.7
2015-Jan-20 06:33N 38°27' W 009°25'1615.7
2015-Jan-20 05:33N 38°11' W 009°25'1616.0
2015-Jan-20 04:32N 37°55' W 009°24'1716.4
2015-Jan-20 03:29N 37°38' W 009°23'6913.8
2015-Jan-19 22:30N 36°41' W 008°34'2217.9
2015-Jan-19 21:15N 36°40' W 008°07'  

Dump ship's entire track history